La Marque, Texas
Current Conditions -  °F | °C
As of 9:52 PM on Saturday 24 Jan 2015 (Local Time) from KGLS Reporting Station
Clear Clear  
Wind Chill: 50°   Ceiling: Unl
Heat Index: 50°   Visibility: 10mi
Dew Point: 46°   Wind: 9mph
Humidity: 86%   Direction: 220°SW
Pressure: 30.12"   Gusts: NA
Location:  29.37°N, 94.97°W
Report Text: KGLS 250352Z AUTO 22008KT 10SM CLR 10/08 A3012 RMK AO2 SLP199 T01000078
Loading
Personal Weather Stations






























Interactive Weather Map New forecast layout! Learn more

10-Day Weather Forecast

Advertisements
Track Severe Weather on mobile